Time;durP1;ratioP1;P1;durP2;ratioP2;P2;SDS_P1;SDS_P2;PMS_P1;PMS_P2;Temp;Humidity;BMP_temperature;BMP_pressure;BME280_temperature;BME280_humidity;BME280_pressure;Samples;Min_cycle;Max_cycle;Signal;HPM_P1;HPM_P2
2023/03/23 00:01:12;;;;;;;60.42;44.63;;;27.20;99.90;;;;;;5037104;28;20104;-68
2023/03/23 00:03:40;;;;;;;64.57;44.43;;;27.20;99.90;;;;;;5037020;28;20036;-68
2023/03/23 00:06:08;;;;;;;56.85;43.85;;;27.20;99.90;;;;;;5037065;28;20025;-68
2023/03/23 00:08:37;;;;;;;68.85;46.55;;;27.20;99.90;;;;;;5036888;28;20421;-70
2023/03/23 00:11:05;;;;;;;65.70;42.30;;;27.20;99.90;;;;;;5036895;28;20056;-70
2023/03/23 00:13:32;;;;;;;50.53;36.95;;;27.30;99.90;;;;;;5036775;28;20490;-70
2023/03/23 00:15:59;;;;;;;49.38;35.42;;;27.30;99.90;;;;;;5036420;28;20570;-71
2023/03/23 00:18:26;;;;;;;50.03;36.90;;;27.30;99.90;;;;;;5034945;28;20054;-70
2023/03/23 00:20:55;;;;;;;53.63;42.17;;;27.30;99.90;;;;;;5028083;28;20022;-71
2023/03/23 00:23:25;;;;;;;63.25;44.70;;;27.30;99.90;;;;;;5017004;28;20176;-69
2023/03/23 00:25:56;;;;;;;54.20;41.45;;;27.30;99.90;;;;;;5016946;28;20114;-70
2023/03/23 00:28:26;;;;;;;57.53;42.33;;;27.20;99.90;;;;;;5017029;28;20066;-71
2023/03/23 00:30:59;;;;;;;55.40;41.03;;;27.20;99.90;;;;;;5016893;28;20251;-70
2023/03/23 00:33:28;;;;;;;53.60;39.03;;;27.30;99.90;;;;;;5016876;28;20025;-69
2023/03/23 00:35:56;;;;;;;51.25;34.00;;;27.40;99.90;;;;;;5016637;28;20030;-71
2023/03/23 00:38:24;;;;;;;41.97;32.88;;;27.40;99.90;;;;;;5016851;28;20026;-72
2023/03/23 00:40:51;;;;;;;42.10;33.05;;;27.50;99.90;;;;;;5016804;28;20049;-70
2023/03/23 00:43:19;;;;;;;39.30;30.58;;;27.60;99.90;;;;;;5016417;28;20471;-69
2023/03/23 00:45:52;;;;;;;47.53;33.00;;;27.60;99.90;;;;;;5016704;28;20104;-69
2023/03/23 00:48:29;;;;;;;48.80;33.95;;;27.60;99.90;;;;;;5016405;28;20096;-69
2023/03/23 00:50:56;;;;;;;45.15;31.83;;;27.70;99.90;;;;;;5022322;28;20040;-69
2023/03/23 00:53:23;;;;;;;44.72;32.08;;;27.80;99.90;;;;;;5022360;28;20049;-69
2023/03/23 00:55:49;;;;;;;45.17;31.75;;;27.80;99.90;;;;;;5016496;28;20112;-68
2023/03/23 00:58:17;;;;;;;47.63;32.90;;;27.80;99.90;;;;;;5029735;28;20029;-70
2023/03/23 01:00:43;;;;;;;45.55;31.90;;;27.80;99.90;;;;;;5036137;28;20026;-70
2023/03/23 01:03:11;;;;;;;44.53;33.45;;;27.80;99.90;;;;;;5035270;28;20096;-69
2023/03/23 01:05:40;;;;;;;40.28;30.80;;;27.80;99.90;;;;;;5036027;28;20033;-67
2023/03/23 01:08:08;;;;;;;37.38;29.80;;;27.90;99.90;;;;;;5032197;28;20022;-67
2023/03/23 01:10:38;;;;;;;36.92;27.55;;;27.90;99.90;;;;;;5031069;28;20037;-67
2023/03/23 01:13:06;;;;;;;33.47;26.13;;;27.90;99.90;;;;;;5028873;28;20415;-68
2023/03/23 01:15:33;;;;;;;35.88;24.30;;;27.90;99.90;;;;;;5023741;28;20022;-66
2023/03/23 01:18:00;;;;;;;29.83;24.63;;;28.00;99.90;;;;;;5035577;28;20025;-68
2023/03/23 01:20:28;;;;;;;30.92;21.75;;;28.00;99.90;;;;;;5035775;28;20021;-68
2023/03/23 01:23:00;;;;;;;31.58;21.38;;;28.10;99.90;;;;;;5035648;28;20029;-68
2023/03/23 01:25:31;;;;;;;28.23;20.67;;;28.20;99.90;;;;;;5035442;28;20474;-68
2023/03/23 01:27:58;;;;;;;25.95;20.88;;;28.20;99.90;;;;;;5035656;28;20026;-68
2023/03/23 01:30:26;;;;;;;29.63;22.98;;;28.30;99.90;;;;;;5035624;28;20026;-68
2023/03/23 01:32:54;;;;;;;28.02;21.63;;;28.30;99.90;;;;;;5035322;28;20040;-67
2023/03/23 01:35:21;;;;;;;28.63;21.63;;;28.30;99.90;;;;;;5035457;28;20104;-67
2023/03/23 01:37:48;;;;;;;28.42;22.40;;;28.40;99.90;;;;;;5035293;28;20021;-70
2023/03/23 01:40:15;;;;;;;62.28;35.78;;;28.30;99.90;;;;;;5035272;28;20021;-68
2023/03/23 01:42:42;;;;;;;49.45;27.77;;;28.40;99.90;;;;;;5035351;28;20029;-68
2023/03/23 01:45:14;;;;;;;36.00;24.42;;;28.40;99.90;;;;;;5035356;28;20026;-68
2023/03/23 01:47:41;;;;;;;30.83;22.70;;;28.50;99.90;;;;;;5030607;28;20360;-68
2023/03/23 01:50:08;;;;;;;32.33;23.52;;;28.60;99.90;;;;;;5028182;28;20053;-68
2023/03/23 01:52:36;;;;;;;33.33;23.83;;;28.60;99.90;;;;;;5035152;28;20025;-68
2023/03/23 01:55:03;;;;;;;73.38;51.88;;;28.60;99.90;;;;;;5034876;28;20478;-68
2023/03/23 01:57:31;;;;;;;40.22;29.52;;;28.60;99.90;;;;;;5034824;28;20119;-67
2023/03/23 02:00:06;;;;;;;33.40;22.55;;;28.60;99.90;;;;;;5031808;28;20034;-68
2023/03/23 02:02:35;;;;;;;31.05;24.75;;;28.60;99.90;;;;;;5034789;28;20108;-67
2023/03/23 02:05:08;;;;;;;34.22;26.30;;;28.60;99.90;;;;;;5034697;28;20059;-67
2023/03/23 02:07:35;;;;;;;39.40;27.27;;;28.70;99.90;;;;;;5034701;28;20029;-65
2023/03/23 02:10:01;;;;;;;46.97;30.58;;;28.70;99.90;;;;;;5034765;28;20026;-65
2023/03/23 02:12:28;;;;;;;43.72;27.95;;;28.70;99.90;;;;;;5034867;28;20025;-65
2023/03/23 02:14:54;;;;;;;67.18;36.85;;;28.70;99.90;;;;;;5033506;28;20470;-65
2023/03/23 02:17:30;;;;;;;72.40;38.03;;;28.70;99.90;;;;;;5034756;28;20109;-68
2023/03/23 02:20:06;;;;;;;107.32;48.70;;;28.80;99.90;;;;;;5034711;28;20022;-68
2023/03/23 02:22:37;;;;;;;75.60;42.67;;;28.80;99.90;;;;;;5034762;28;20029;-67
2023/03/23 02:25:18;;;;;;;97.20;50.70;;;28.80;99.90;;;;;;5034901;28;20100;-67
2023/03/23 02:28:04;;;;;;;304.40;124.90;;;28.90;99.90;;;;;;5034973;28;20029;-67
2023/03/23 02:30:34;;;;;;;151.05;72.72;;;28.80;99.90;;;;;;5034372;28;20061;-68
2023/03/23 02:33:08;;;;;;;92.57;50.40;;;28.90;99.90;;;;;;5034453;28;20102;-68
2023/03/23 02:35:39;;;;;;;91.95;47.35;;;28.90;99.90;;;;;;5034394;28;20033;-67
2023/03/23 02:38:13;;;;;;;88.85;50.58;;;28.90;99.90;;;;;;5034351;28;20022;-67
2023/03/23 02:40:47;;;;;;;93.03;53.30;;;28.90;99.90;;;;;;5034268;28;20025;-68
2023/03/23 02:43:20;;;;;;;89.10;54.33;;;28.90;99.90;;;;;;5034048;28;20032;-68
2023/03/23 02:45:47;;;;;;;98.47;57.83;;;28.90;99.90;;;;;;5034361;28;20100;-69
2023/03/23 02:48:16;;;;;;;96.72;59.00;;;29.00;99.90;;;;;;5034224;28;20470;-67
2023/03/23 02:50:46;;;;;;;121.93;64.47;;;29.00;99.90;;;;;;5034001;28;20033;-67
2023/03/23 02:53:15;;;;;;;147.85;70.80;;;29.10;99.90;;;;;;5034212;28;20026;-68
2023/03/23 02:55:44;;;;;;;144.10;71.15;;;29.10;99.90;;;;;;5034469;28;20028;-67
2023/03/23 02:58:11;;;;;;;120.15;61.80;;;29.10;99.90;;;;;;5034014;28;20044;-67
2023/03/23 03:00:38;;;;;;;107.68;56.50;;;29.20;99.90;;;;;;5034083;28;20547;-67
2023/03/23 03:03:14;;;;;;;122.18;61.90;;;29.30;99.90;;;;;;5033879;28;20025;-67
2023/03/23 03:05:54;;;;;;;116.40;55.45;;;29.30;99.90;;;;;;5033158;28;20033;-67
2023/03/23 03:08:23;;;;;;;107.18;53.53;;;29.30;99.90;;;;;;5033712;28;20017;-67
2023/03/23 03:10:53;;;;;;;105.90;54.47;;;29.40;99.90;;;;;;5034090;28;20151;-65
2023/03/23 03:13:21;;;;;;;120.68;62.53;;;29.40;99.90;;;;;;5034103;28;20049;-69
2023/03/23 03:15:53;;;;;;;134.27;62.03;;;29.40;99.90;;;;;;5033656;28;20387;-71
2023/03/23 03:18:40;;;;;;;124.45;61.92;;;29.40;99.90;;;;;;5032759;28;20057;-72
2023/03/23 03:21:10;;;;;;;131.07;67.80;;;29.40;99.90;;;;;;5023399;28;20035;-71
2023/03/23 03:23:41;;;;;;;140.73;74.28;;;29.50;99.90;;;;;;5024250;28;20030;-69
2023/03/23 03:26:10;;;;;;;150.27;74.18;;;29.50;99.90;;;;;;5013219;28;20030;-67
2023/03/23 03:28:37;;;;;;;149.07;76.97;;;29.50;99.90;;;;;;5013722;28;20092;-67
2023/03/23 03:31:06;;;;;;;143.40;72.65;;;29.50;99.90;;;;;;5013851;28;20029;-65
2023/03/23 03:33:33;;;;;;;150.27;74.97;;;29.60;99.90;;;;;;5016453;28;20478;-66
2023/03/23 03:36:08;;;;;;;140.60;74.13;;;29.70;99.90;;;;;;5032911;28;20045;-67
2023/03/23 03:38:40;;;;;;;145.77;76.40;;;29.80;99.90;;;;;;5033156;28;20106;-67
2023/03/23 03:41:06;;;;;;;150.57;80.18;;;29.80;99.90;;;;;;5033294;28;20018;-67
2023/03/23 03:43:34;;;;;;;153.38;80.75;;;29.80;99.90;;;;;;5033166;28;20026;-67
2023/03/23 03:46:01;;;;;;;148.85;80.63;;;29.90;99.90;;;;;;5033097;28;20083;-69
2023/03/23 03:48:29;;;;;;;149.23;83.75;;;29.90;99.90;;;;;;5032800;28;20552;-67
2023/03/23 03:50:56;;;;;;;151.35;82.38;;;29.90;99.90;;;;;;5033045;28;20033;-67
2023/03/23 03:53:24;;;;;;;159.75;86.55;;;30.00;99.90;;;;;;5020313;28;20471;-67
2023/03/23 03:55:55;;;;;;;153.10;82.30;;;30.10;99.90;;;;;;5021743;28;20022;-67
2023/03/23 03:58:22;;;;;;;171.63;89.95;;;30.20;99.90;;;;;;5020773;28;20026;-67
2023/03/23 04:00:49;;;;;;;174.10;89.82;;;30.30;99.90;;;;;;5029560;28;20052;-66
2023/03/23 04:03:16;;;;;;;165.68;87.60;;;30.40;99.90;;;;;;5032900;28;20025;-67
2023/03/23 04:05:44;;;;;;;172.85;89.60;;;30.50;99.90;;;;;;5032855;28;20033;-67
2023/03/23 04:08:12;;;;;;;174.43;94.07;;;30.50;99.90;;;;;;5032982;28;20163;-66
2023/03/23 04:10:39;;;;;;;185.02;98.68;;;30.50;99.90;;;;;;5030310;28;20021;-64
2023/03/23 04:13:06;;;;;;;176.27;94.22;;;30.60;99.90;;;;;;5022231;28;20029;-64
2023/03/23 04:15:32;;;;;;;177.73;97.75;;;30.60;99.90;;;;;;5015295;28;20038;-64
2023/03/23 04:17:59;;;;;;;188.35;99.40;;;30.60;99.90;;;;;;5012980;28;20026;-64
2023/03/23 04:20:26;;;;;;;185.52;105.47;;;30.70;99.90;;;;;;5018690;28;20045;-64
2023/03/23 04:22:54;;;;;;;223.98;115.93;;;30.70;99.90;;;;;;5022697;28;20097;-64
2023/03/23 04:25:22;;;;;;;202.85;110.38;;;30.70;99.90;;;;;;5021453;28;20556;-64
2023/03/23 04:27:52;;;;;;;209.20;114.85;;;30.70;99.90;;;;;;5021271;28;20037;-65
2023/03/23 04:30:21;;;;;;;207.40;110.72;;;30.70;99.90;;;;;;5014549;28;20371;-65
2023/03/23 04:32:50;;;;;;;188.85;102.45;;;30.90;99.90;;;;;;5013881;28;20479;-65
2023/03/23 04:35:19;;;;;;;211.55;114.53;;;30.90;99.90;;;;;;5014405;28;20038;-65
2023/03/23 04:37:46;;;;;;;183.18;101.20;;;30.90;99.90;;;;;;5015500;28;20471;-65
2023/03/23 04:40:14;;;;;;;199.52;109.53;;;30.90;99.90;;;;;;5017726;28;20026;-65
2023/03/23 04:45:14;;;;;;;209.70;113.70;;;31.00;99.90;;;;;;5017724;28;20068;-65
2023/03/23 04:47:42;;;;;;;192.65;110.10;;;31.10;99.90;;;;;;5017924;28;20030;-65
2023/03/23 04:50:13;;;;;;;196.25;105.60;;;31.30;99.90;;;;;;5020126;28;20395;-65
2023/03/23 04:52:44;;;;;;;194.32;105.82;;;31.30;99.90;;;;;;5022543;28;20467;-65
2023/03/23 04:55:12;;;;;;;194.98;106.22;;;31.30;99.90;;;;;;5025036;28;20045;-65
2023/03/23 04:57:40;;;;;;;206.57;113.97;;;31.20;99.90;;;;;;5026695;28;20029;-65
2023/03/23 05:00:08;;;;;;;183.68;105.90;;;31.20;99.90;;;;;;5025704;28;20021;-66
2023/03/23 05:02:36;;;;;;;184.60;105.32;;;31.20;99.90;;;;;;5026228;28;20029;-66
2023/03/23 05:05:03;;;;;;;193.10;107.80;;;31.20;99.90;;;;;;5026060;28;20021;-66
2023/03/23 05:07:30;;;;;;;201.93;111.88;;;31.10;99.90;;;;;;5025374;28;20093;-66
2023/03/23 05:09:56;;;;;;;200.82;106.75;;;31.20;99.90;;;;;;5027194;28;20025;-67
2023/03/23 05:12:23;;;;;;;205.18;112.45;;;31.20;99.90;;;;;;5027817;28;20483;-66
2023/03/23 05:14:50;;;;;;;196.13;108.15;;;31.20;99.90;;;;;;5025085;28;20060;-66
2023/03/23 05:17:16;;;;;;;198.48;106.43;;;31.20;99.90;;;;;;5026066;28;20022;-66
2023/03/23 05:19:47;;;;;;;195.27;109.85;;;31.20;99.90;;;;;;5025892;28;20045;-66
2023/03/23 05:22:14;;;;;;;208.05;112.40;;;31.30;99.90;;;;;;5025504;28;20072;-66
2023/03/23 05:24:42;;;;;;;197.02;111.22;;;31.30;99.90;;;;;;5024594;28;20388;-67
2023/03/23 05:27:09;;;;;;;199.15;111.32;;;31.30;99.90;;;;;;5023757;28;20060;-67
2023/03/23 05:29:36;;;;;;;194.02;109.40;;;31.30;99.90;;;;;;5025487;28;20105;-63
2023/03/23 05:32:05;;;;;;;202.32;112.15;;;31.30;99.90;;;;;;5024520;28;20025;-64
2023/03/23 05:34:32;;;;;;;190.25;108.93;;;31.30;99.90;;;;;;5026586;28;20096;-65
2023/03/23 05:37:03;;;;;;;190.18;109.60;;;31.30;99.90;;;;;;5032245;28;20021;-65
2023/03/23 05:39:32;;;;;;;203.45;118.13;;;31.20;99.90;;;;;;5016820;28;20140;-66
2023/03/23 05:41:58;;;;;;;216.55;119.75;;;31.30;99.90;;;;;;5016405;28;20036;-66
2023/03/23 05:44:26;;;;;;;202.35;114.30;;;31.30;99.90;;;;;;5021845;28;20036;-66
2023/03/23 05:46:53;;;;;;;182.43;106.90;;;31.30;99.90;;;;;;5022842;28;20022;-65
2023/03/23 05:49:19;;;;;;;176.65;103.72;;;31.30;99.90;;;;;;5023573;28;20141;-66
2023/03/23 05:51:46;;;;;;;155.20;98.72;;;31.30;99.90;;;;;;5028271;28;20112;-65
2023/03/23 05:54:14;;;;;;;154.98;96.65;;;31.30;99.90;;;;;;5025910;28;20072;-67
2023/03/23 05:56:41;;;;;;;134.32;87.70;;;31.30;99.90;;;;;;5022589;28;20097;-66
2023/03/23 05:59:08;;;;;;;104.25;72.15;;;31.40;99.90;;;;;;5023439;28;20044;-68
2023/03/23 06:01:34;;;;;;;105.90;73.45;;;31.40;99.90;;;;;;5023547;28;20474;-66
2023/03/23 06:04:01;;;;;;;148.45;97.75;;;31.40;99.90;;;;;;5025549;28;20029;-67
2023/03/23 06:06:30;;;;;;;136.52;91.28;;;31.40;99.90;;;;;;5023468;28;20029;-66
2023/03/23 06:08:57;;;;;;;116.45;78.75;;;31.40;99.90;;;;;;5024036;28;20075;-64
2023/03/23 06:11:25;;;;;;;111.53;75.00;;;31.50;99.90;;;;;;5023851;28;20029;-66
2023/03/23 06:13:53;;;;;;;113.65;77.47;;;31.50;99.90;;;;;;5023538;28;20479;-66
2023/03/23 06:16:20;;;;;;;109.75;76.25;;;31.50;99.90;;;;;;5022012;28;20076;-67
2023/03/23 06:18:48;;;;;;;111.22;77.18;;;31.50;99.90;;;;;;5022345;28;20485;-66
2023/03/23 06:21:15;;;;;;;120.57;78.40;;;31.60;99.90;;;;;;5021797;28;20080;-66
2023/03/23 06:23:41;;;;;;;105.32;71.07;;;31.70;99.90;;;;;;5028273;28;20026;-68
2023/03/23 06:26:09;;;;;;;127.30;78.72;;;31.80;99.90;;;;;;5022359;28;20652;-67
2023/03/23 06:28:36;;;;;;;115.32;77.30;;;31.80;99.90;;;;;;5025104;28;20076;-67
2023/03/23 06:31:06;;;;;;;109.63;68.90;;;31.90;99.90;;;;;;5021747;28;20025;-67
2023/03/23 06:33:35;;;;;;;100.80;69.20;;;31.90;99.90;;;;;;5024589;28;20037;-65
2023/03/23 06:36:02;;;;;;;105.35;67.13;;;32.10;99.90;;;;;;5020848;28;20671;-68
2023/03/23 06:38:29;;;;;;;143.35;89.03;;;32.30;99.90;;;;;;5021937;28;20143;-66
2023/03/23 06:40:56;;;;;;;131.93;79.28;;;32.30;99.90;;;;;;5019523;28;20018;-66
2023/03/23 06:43:23;;;;;;;131.18;78.70;;;32.40;99.90;;;;;;5022420;28;20516;-68
2023/03/23 06:45:51;;;;;;;152.80;93.35;;;32.40;99.90;;;;;;5020225;28;20034;-68
2023/03/23 06:48:18;;;;;;;136.75;85.70;;;32.50;99.90;;;;;;5022303;28;20025;-68
2023/03/23 06:50:46;;;;;;;130.38;83.47;;;32.50;99.90;;;;;;5015115;28;20034;-68
2023/03/23 06:53:13;;;;;;;121.53;77.97;;;32.50;99.90;;;;;;5018824;28;20088;-67
2023/03/23 06:55:42;;;;;;;111.65;70.95;;;32.50;99.90;;;;;;5023705;28;20033;-67
2023/03/23 06:58:10;;;;;;;118.47;74.68;;;32.50;99.90;;;;;;5026043;28;20022;-68
2023/03/23 07:00:36;;;;;;;115.80;75.47;;;32.50;99.90;;;;;;5021890;28;20502;-69
2023/03/23 07:03:03;;;;;;;116.88;76.00;;;32.60;99.90;;;;;;5025398;28;20029;-68
2023/03/23 07:05:30;;;;;;;123.25;77.03;;;32.60;99.90;;;;;;5023355;28;20030;-70
2023/03/23 07:07:57;;;;;;;111.55;72.38;;;32.80;99.90;;;;;;5022253;28;20428;-70
2023/03/23 07:10:26;;;;;;;114.05;72.47;;;32.80;99.90;;;;;;5023821;28;20033;-68
2023/03/23 07:12:52;;;;;;;110.00;70.30;;;32.80;99.90;;;;;;5024530;28;20104;-70
2023/03/23 07:15:19;;;;;;;104.43;68.30;;;32.70;99.90;;;;;;5020207;28;20022;-67
2023/03/23 07:17:47;;;;;;;97.47;67.15;;;32.70;99.90;;;;;;5025446;28;20026;-68
2023/03/23 07:20:14;;;;;;;99.60;65.68;;;32.70;99.90;;;;;;5024865;28;20036;-70
2023/03/23 07:22:41;;;;;;;97.78;63.35;;;32.70;99.90;;;;;;5023960;28;20017;-68
2023/03/23 07:25:09;;;;;;;102.20;64.13;;;32.80;99.90;;;;;;5025612;28;20033;-68
2023/03/23 07:27:35;;;;;;;98.60;63.00;;;32.80;99.90;;;;;;5025605;28;20021;-66
2023/03/23 07:30:02;;;;;;;102.45;64.72;;;32.80;99.90;;;;;;5026003;28;20080;-66
2023/03/23 07:32:28;;;;;;;100.00;65.50;;;32.90;99.90;;;;;;5020409;28;20030;-66
2023/03/23 07:34:55;;;;;;;112.93;69.68;;;32.90;99.90;;;;;;5017361;28;20036;-68
2023/03/23 07:37:22;;;;;;;99.03;65.32;;;32.90;99.90;;;;;;5016398;28;20048;-68
2023/03/23 07:39:49;;;;;;;95.03;62.22;;;32.90;99.90;;;;;;5015994;28;20049;-65
2023/03/23 07:42:15;;;;;;;103.53;68.78;;;32.90;99.90;;;;;;5015849;28;20105;-68
2023/03/23 07:44:42;;;;;;;96.70;65.30;;;32.90;99.90;;;;;;5019395;28;20022;-67
2023/03/23 07:47:09;;;;;;;99.82;65.13;;;32.90;99.90;;;;;;5021924;28;20022;-66
2023/03/23 07:49:37;;;;;;;89.07;59.97;;;32.80;99.90;;;;;;5020169;28;20116;-65
2023/03/23 07:52:03;;;;;;;96.30;63.50;;;32.80;99.90;;;;;;5021850;28;20018;-65
2023/03/23 07:54:30;;;;;;;84.60;57.97;;;32.80;99.90;;;;;;5019931;28;20041;-65
2023/03/23 07:56:57;;;;;;;70.45;50.97;;;32.80;99.90;;;;;;5019118;28;20112;-65
2023/03/23 07:59:23;;;;;;;63.30;45.97;;;32.80;99.90;;;;;;5020491;28;20017;-67
2023/03/23 08:01:52;;;;;;;68.57;47.38;;;32.80;99.90;;;;;;5021488;28;20044;-68
2023/03/23 08:04:19;;;;;;;55.53;43.35;;;32.70;99.90;;;;;;5024664;28;20066;-66
2023/03/23 08:06:47;;;;;;;63.38;44.30;;;32.80;99.90;;;;;;5021896;28;20029;-68
2023/03/23 08:09:16;;;;;;;60.17;42.60;;;32.70;99.90;;;;;;5022800;28;20036;-67
2023/03/23 08:11:43;;;;;;;57.65;42.20;;;32.80;99.90;;;;;;5025233;28;20030;-68
2023/03/23 08:14:10;;;;;;;61.17;43.30;;;32.80;99.90;;;;;;5026485;28;20151;-66
2023/03/23 08:16:36;;;;;;;62.63;46.92;;;32.90;99.90;;;;;;5026466;28;20364;-68
2023/03/23 08:19:04;;;;;;;64.10;47.65;;;32.80;99.90;;;;;;5028960;28;20105;-74
2023/03/23 08:21:31;;;;;;;75.53;50.40;;;32.90;99.90;;;;;;5025384;28;20123;-71
2023/03/23 08:23:57;;;;;;;67.75;48.72;;;32.80;99.90;;;;;;5009108;28;20013;-71
2023/03/23 08:26:24;;;;;;;69.53;51.45;;;32.80;99.90;;;;;;5026702;28;20489;-71
2023/03/23 08:28:50;;;;;;;73.32;50.65;;;32.80;99.90;;;;;;5007645;28;20430;-72
2023/03/23 08:31:17;;;;;;;56.53;41.38;;;32.80;99.90;;;;;;5026908;28;20049;-71
2023/03/23 08:33:43;;;;;;;59.78;41.13;;;32.70;99.90;;;;;;5029939;28;20022;-71
2023/03/23 08:36:10;;;;;;;46.80;29.70;;;32.70;99.90;;;;;;5027583;28;20356;-69
2023/03/23 08:38:37;;;;;;;27.08;17.20;;;32.60;99.90;;;;;;5019342;28;20018;-68
2023/03/23 08:41:06;;;;;;;23.05;13.32;;;32.50;99.90;;;;;;5016591;28;20025;-69
2023/03/23 08:43:34;;;;;;;19.25;13.15;;;32.20;99.90;;;;;;5016624;28;20024;-68
2023/03/23 08:46:06;;;;;;;21.17;13.32;;;32.00;99.90;;;;;;5016535;28;20034;-68
2023/03/23 08:48:35;;;;;;;26.50;13.30;;;31.80;99.90;;;;;;5016120;28;20049;-68
2023/03/23 08:51:03;;;;;;;28.90;14.52;;;31.60;99.90;;;;;;5016345;28;20026;-68
2023/03/23 08:53:31;;;;;;;22.08;14.07;;;31.50;99.90;;;;;;5016511;28;20029;-68
2023/03/23 08:56:05;;;;;;;19.80;15.13;;;31.40;99.90;;;;;;5016208;28;20033;-68
2023/03/23 08:58:32;;;;;;;30.05;16.67;;;31.40;99.90;;;;;;5018890;28;20030;-68
2023/03/23 09:00:59;;;;;;;25.20;18.05;;;31.40;99.90;;;;;;5026061;28;20018;-69
2023/03/23 09:03:26;;;;;;;28.38;16.77;;;31.40;99.90;;;;;;5024567;28;20018;-69
2023/03/23 09:05:53;;;;;;;24.08;15.05;;;31.40;99.90;;;;;;5025593;28;20021;-69
2023/03/23 09:08:20;;;;;;;27.48;16.40;;;31.40;99.90;;;;;;5026060;28;20018;-66
2023/03/23 09:10:46;;;;;;;24.67;15.90;;;31.40;99.90;;;;;;5025679;28;20033;-66
2023/03/23 09:13:13;;;;;;;29.75;20.92;;;31.30;99.90;;;;;;5024410;28;20022;-66
2023/03/23 09:15:40;;;;;;;34.05;21.42;;;31.30;99.90;;;;;;5023906;28;20058;-65
2023/03/23 09:18:06;;;;;;;41.45;27.52;;;31.30;99.90;;;;;;5017886;28;20375;-65
2023/03/23 09:20:33;;;;;;;29.98;21.95;;;31.40;99.90;;;;;;5015507;28;20021;-66
2023/03/23 09:23:00;;;;;;;31.88;19.70;;;31.40;99.90;;;;;;5022575;28;20379;-66
2023/03/23 09:25:28;;;;;;;25.23;18.70;;;31.40;99.90;;;;;;5015017;28;20038;-65
2023/03/23 09:27:57;;;;;;;47.17;33.70;;;31.50;99.90;;;;;;5015399;28;20032;-66
2023/03/23 09:30:26;;;;;;;55.47;38.83;;;31.50;99.90;;;;;;5015399;28;20038;-66
2023/03/23 09:32:54;;;;;;;96.05;66.53;;;31.40;99.90;;;;;;5015306;28;20068;-66
2023/03/23 09:35:22;;;;;;;50.42;37.42;;;31.40;99.90;;;;;;5015327;28;20027;-64
2023/03/23 09:37:50;;;;;;;44.10;29.52;;;31.50;99.90;;;;;;5015313;28;20030;-65
2023/03/23 09:40:43;;;;;;;103.50;74.07;;;31.60;99.90;;;;;;4997476;28;20044;-65
2023/03/23 09:43:12;;;;;;;50.35;31.05;;;31.60;99.90;;;;;;5015151;28;20026;-65
2023/03/23 09:45:52;;;;;;;67.72;46.55;;;31.70;99.90;;;;;;5020343;28;20068;-65
2023/03/23 09:48:23;;;;;;;162.02;116.68;;;31.60;99.90;;;;;;5025057;28;20422;-65
2023/03/23 09:50:57;;;;;;;75.67;52.13;;;31.60;99.90;;;;;;5007032;28;20383;-65
2023/03/23 09:53:34;;;;;;;53.08;38.13;;;31.70;99.90;;;;;;5023959;28;20102;-65
2023/03/23 09:56:04;;;;;;;33.28;23.25;;;31.70;99.90;;;;;;5022297;28;20032;-65
2023/03/23 09:58:41;;;;;;;44.80;28.95;;;31.70;99.90;;;;;;5027938;28;20022;-65
2023/03/23 10:01:32;;;;;;;36.88;22.85;;;31.70;99.90;;;;;;5024223;28;20028;-65
2023/03/23 10:04:07;;;;;;;22.80;15.98;;;31.70;99.90;;;;;;5024901;28;20029;-65
2023/03/23 10:06:33;;;;;;;154.15;117.25;;;31.60;99.90;;;;;;5022078;28;20547;-65
2023/03/23 10:09:05;;;;;;;43.35;26.85;;;31.60;99.90;;;;;;5022964;28;20026;-65
2023/03/23 10:11:46;;;;;;;42.47;24.42;;;31.50;99.90;;;;;;5023106;28;20032;-65
2023/03/23 10:14:17;;;;;;;49.20;27.13;;;31.40;99.90;;;;;;5023507;28;20478;-65
2023/03/23 10:17:06;;;;;;;40.85;25.98;;;31.30;99.90;;;;;;5026622;28;20045;-65
2023/03/23 10:19:50;;;;;;;196.73;114.57;;;31.30;99.90;;;;;;5021170;28;20022;-65
2023/03/23 10:22:23;;;;;;;44.88;29.05;;;31.30;99.90;;;;;;5025216;28;20064;-64
2023/03/23 10:24:57;;;;;;;65.50;47.60;;;31.20;99.90;;;;;;5024221;28;20026;-64
2023/03/23 10:27:29;;;;;;;57.60;41.70;;;31.30;99.90;;;;;;5020785;28;20022;-64
2023/03/23 10:30:14;;;;;;;86.28;53.67;;;31.30;99.90;;;;;;5023406;28;20025;-63
2023/03/23 10:32:49;;;;;;;55.88;35.42;;;31.30;99.90;;;;;;5034314;28;20026;-63
2023/03/23 10:35:25;;;;;;;133.45;90.55;;;31.30;99.90;;;;;;5033170;28;20355;-64
2023/03/23 10:38:00;;;;;;;56.38;39.42;;;31.30;99.90;;;;;;5026706;28;20103;-61
2023/03/23 10:40:30;;;;;;;47.17;30.20;;;31.40;99.90;;;;;;5034264;28;20076;-64
2023/03/23 10:42:58;;;;;;;46.42;29.33;;;31.30;99.90;;;;;;5030375;28;20480;-63
2023/03/23 10:45:32;;;;;;;47.22;30.10;;;31.30;99.90;;;;;;5022152;28;20040;-63
2023/03/23 10:48:08;;;;;;;64.82;36.15;;;31.30;99.90;;;;;;5019495;28;20037;-68
2023/03/23 10:50:38;;;;;;;68.28;40.03;;;31.30;99.90;;;;;;5023172;28;20065;-69
2023/03/23 10:53:15;;;;;;;79.10;46.92;;;31.30;99.90;;;;;;5023969;28;20028;-66
2023/03/23 10:55:44;;;;;;;103.70;57.33;;;31.30;99.90;;;;;;5023125;28;20033;-68
2023/03/23 10:58:22;;;;;;;103.50;55.58;;;31.20;99.90;;;;;;5022873;28;20025;-67
2023/03/23 11:00:50;;;;;;;105.20;57.50;;;31.20;99.90;;;;;;5023552;28;20512;-66
2023/03/23 11:03:17;;;;;;;113.93;62.08;;;31.20;99.90;;;;;;5022243;28;20041;-67
2023/03/23 11:05:52;;;;;;;86.18;49.03;;;31.10;99.90;;;;;;5027347;28;20059;-69
2023/03/23 11:08:24;;;;;;;62.00;36.88;;;31.00;99.90;;;;;;5025035;28;20529;-66
2023/03/23 11:10:52;;;;;;;60.20;37.60;;;31.00;99.90;;;;;;5023520;28;20052;-68
2023/03/23 11:13:21;;;;;;;91.28;54.95;;;31.00;99.90;;;;;;5010491;28;20028;-67
2023/03/23 11:15:49;;;;;;;183.98;147.90;;;30.90;99.90;;;;;;5020825;28;20029;-66
2023/03/23 11:18:20;;;;;;;253.50;194.90;;;30.80;99.90;;;;;;5021433;28;20021;-66
2023/03/23 11:20:50;;;;;;;198.55;150.35;;;30.90;99.90;;;;;;5022889;28;20017;-67
2023/03/23 11:23:23;;;;;;;211.18;149.18;;;30.90;99.90;;;;;;5023216;28;20418;-68
2023/03/23 11:25:56;;;;;;;163.55;112.25;;;30.90;99.90;;;;;;5022283;28;20048;-67
2023/03/23 11:28:31;;;;;;;193.02;132.43;;;30.90;99.90;;;;;;5021641;28;20577;-68
2023/03/23 11:31:00;;;;;;;176.18;110.25;;;30.90;99.90;;;;;;5023684;28;20034;-65
2023/03/23 11:33:31;;;;;;;141.63;95.30;;;30.80;99.90;;;;;;5025263;28;20034;-68
2023/03/23 11:35:58;;;;;;;140.82;90.07;;;30.80;99.90;;;;;;5027547;28;20425;-67
2023/03/23 11:38:27;;;;;;;121.70;72.50;;;30.80;99.90;;;;;;5027145;28;20299;-64
2023/03/23 11:40:55;;;;;;;72.82;46.08;;;30.80;99.90;;;;;;5026768;28;20057;-67
2023/03/23 11:43:24;;;;;;;66.90;39.22;;;30.80;99.90;;;;;;5022324;28;20056;-65
2023/03/23 11:46:12;;;;;;;75.88;46.33;;;30.80;99.90;;;;;;5004587;28;20029;-64
2023/03/23 11:48:46;;;;;;;71.55;45.05;;;30.80;99.90;;;;;;5021940;28;20110;-67
2023/03/23 11:51:20;;;;;;;66.95;44.47;;;30.70;99.90;;;;;;5022023;28;20057;-66
2023/03/23 11:53:56;;;;;;;81.75;46.45;;;30.70;99.90;;;;;;5021201;28;20287;-66
2023/03/23 11:56:28;;;;;;;77.90;47.70;;;30.70;99.90;;;;;;5022549;28;20052;-66
2023/03/23 11:58:57;;;;;;;86.25;52.45;;;30.60;99.90;;;;;;5021991;28;20029;-67
2023/03/23 12:01:32;;;;;;;87.55;51.55;;;30.70;99.90;;;;;;5021405;28;20022;-66
2023/03/23 12:04:02;;;;;;;43.85;28.33;;;30.60;99.90;;;;;;5020926;28;20029;-66
2023/03/23 12:06:41;;;;;;;59.40;39.20;;;30.60;99.90;;;;;;5021587;28;20022;-66
2023/03/23 12:09:11;;;;;;;43.05;27.88;;;30.60;99.90;;;;;;5021113;28;20033;-64
2023/03/23 12:11:44;;;;;;;55.58;36.63;;;30.60;99.90;;;;;;5025492;28;20030;-65
2023/03/23 12:14:33;;;;;;;84.03;55.20;;;30.50;99.90;;;;;;5021777;28;20184;-66
2023/03/23 12:17:16;;;;;;;40.28;23.67;;;30.60;99.90;;;;;;5019271;28;20061;-66
2023/03/23 12:19:54;;;;;;;37.78;25.10;;;30.60;99.90;;;;;;5025334;28;20063;-65
2023/03/23 12:22:26;;;;;;;57.72;38.10;;;30.50;99.90;;;;;;5025719;28;20030;-66
2023/03/23 12:24:57;;;;;;;151.50;96.22;;;30.50;99.90;;;;;;5023373;28;20056;-65
2023/03/23 12:27:34;;;;;;;131.52;87.85;;;30.60;99.90;;;;;;5022948;28;20520;-66
2023/03/23 12:30:23;;;;;;;24.08;14.93;;;30.60;99.90;;;;;;5023600;28;20050;-65
2023/03/23 12:32:53;;;;;;;16.33;11.15;;;30.50;99.90;;;;;;5017303;28;20057;-66
2023/03/23 12:35:40;;;;;;;19.17;12.20;;;30.40;99.90;;;;;;5021662;28;20029;-66